createdAt,value
2018-09-12T00:00:13.941Z,96239.08
2018-09-12T00:02:42.350Z,96237.92
2018-09-12T00:05:11.800Z,96226.92
2018-09-12T00:07:40.265Z,96231.82
2018-09-12T00:10:08.688Z,96229.72
2018-09-12T00:12:37.081Z,96221.77
2018-09-12T00:15:05.593Z,96219.95
2018-09-12T00:17:34.016Z,96218.27
2018-09-12T00:20:02.576Z,96221.55
2018-09-12T00:22:30.965Z,96208.65
2018-09-12T00:24:59.438Z,96212.60
2018-09-12T00:27:27.853Z,96212.77
2018-09-12T00:29:56.318Z,96209.62
2018-09-12T00:32:24.747Z,96206.34
2018-09-12T00:34:53.172Z,96200.89
2018-09-12T00:37:21.577Z,96202.03
2018-09-12T00:39:50.010Z,96205.92
2018-09-12T00:42:18.409Z,96199.80
2018-09-12T00:44:46.821Z,96198.48
2018-09-12T00:47:15.228Z,96199.97
2018-09-12T00:49:43.616Z,96200.77
2018-09-12T00:52:12.029Z,96199.48
2018-09-12T00:54:40.629Z,96199.48
2018-09-12T00:57:09.112Z,96198.52
2018-09-12T00:59:38.604Z,96197.45
2018-09-12T01:02:07.034Z,96197.61
2018-09-12T01:04:35.452Z,96199.23
2018-09-12T01:07:03.960Z,96201.14
2018-09-12T01:09:32.522Z,96197.86
2018-09-12T01:12:00.942Z,96198.01
2018-09-12T01:14:31.282Z,96202.92
2018-09-12T01:17:00.199Z,96203.08
2018-09-12T01:19:29.048Z,96195.38
2018-09-12T01:21:57.508Z,96202.59
2018-09-12T01:24:25.918Z,96197.92
2018-09-12T01:26:54.413Z,96199.91
2018-09-12T01:29:26.314Z,96191.42
2018-09-12T01:31:54.874Z,96193.83
2018-09-12T01:34:24.237Z,96188.19
2018-09-12T01:36:52.785Z,96187.15
2018-09-12T01:39:21.170Z,96187.50
2018-09-12T01:41:49.591Z,96186.00
2018-09-12T01:44:18.606Z,96178.77
2018-09-12T01:46:46.991Z,96181.63
2018-09-12T01:49:17.497Z,96177.55
2018-09-12T01:51:46.845Z,96175.61
2018-09-12T01:54:15.786Z,96173.34
2018-09-12T01:56:44.189Z,96170.10
2018-09-12T01:59:13.062Z,96174.21
2018-09-12T02:01:41.829Z,96172.67
2018-09-12T02:04:10.280Z,96174.77
2018-09-12T02:06:38.731Z,96174.20
2018-09-12T02:09:10.225Z,96174.80
2018-09-12T02:11:38.700Z,96173.58
2018-09-12T02:14:07.136Z,96173.84
2018-09-12T02:16:35.550Z,96172.81
2018-09-12T02:19:04.305Z,96170.91
2018-09-12T02:21:32.704Z,96170.17
2018-09-12T02:24:02.033Z,96165.88
2018-09-12T02:26:30.485Z,96164.56
2018-09-12T02:28:58.926Z,96155.65
2018-09-12T02:31:27.318Z,96150.84
2018-09-12T02:33:55.870Z,96147.92
2018-09-12T02:36:28.649Z,96140.71
2018-09-12T02:38:58.298Z,96141.42
2018-09-12T02:41:26.697Z,96136.45
2018-09-12T02:43:55.564Z,96128.78
2018-09-12T02:46:24.111Z,96124.76
2018-09-12T02:48:52.888Z,96118.59
2018-09-12T02:51:21.344Z,96121.73
2018-09-12T02:53:49.815Z,96118.80
2018-09-12T02:56:18.484Z,96117.40
2018-09-12T02:58:46.891Z,96112.32
2018-09-12T03:01:15.702Z,96109.02
2018-09-12T03:03:44.113Z,96109.67
2018-09-12T03:06:12.557Z,96107.91
2018-09-12T03:08:40.984Z,96110.59
2018-09-12T03:11:09.446Z,96102.62
2018-09-12T03:13:37.825Z,96101.05
2018-09-12T03:16:06.285Z,96098.37
2018-09-12T03:18:34.726Z,96096.83
2018-09-12T03:21:03.802Z,96096.67
2018-09-12T03:23:32.099Z,96090.55
2018-09-12T03:26:00.524Z,96090.58
2018-09-12T03:28:28.906Z,96086.77
2018-09-12T03:30:57.366Z,96085.77
2018-09-12T03:33:25.744Z,96081.80
2018-09-12T03:35:54.133Z,96079.05
2018-09-12T03:38:22.617Z,96080.80
2018-09-12T03:40:50.986Z,96079.39
2018-09-12T03:43:19.420Z,96079.52
2018-09-12T03:45:47.814Z,96073.66
2018-09-12T03:48:16.246Z,96074.77
2018-09-12T03:50:44.626Z,96083.93
2018-09-12T03:53:13.073Z,96071.59
2018-09-12T03:55:41.461Z,96073.87
2018-09-12T03:58:09.891Z,96073.55
2018-09-12T04:00:38.297Z,96077.13
2018-09-12T04:03:06.729Z,96066.43
2018-09-12T04:05:35.125Z,96065.67
2018-09-12T04:08:03.557Z,96060.31
2018-09-12T04:10:31.960Z,96064.25
2018-09-12T04:13:00.360Z,96063.77
2018-09-12T04:15:28.754Z,96059.50
2018-09-12T04:17:57.184Z,96064.12
2018-09-12T04:20:25.584Z,96059.16
2018-09-12T04:22:53.997Z,96068.06
2018-09-12T04:25:22.388Z,96063.13
2018-09-12T04:27:50.810Z,96061.95
2018-09-12T04:30:19.200Z,96063.27
2018-09-12T04:32:47.609Z,96072.59
2018-09-12T04:35:15.977Z,96071.44
2018-09-12T04:37:44.610Z,96072.05
2018-09-12T04:40:13.106Z,96068.24
2018-09-12T04:42:41.600Z,96069.49
2018-09-12T04:45:09.925Z,96068.75
2018-09-12T04:47:38.309Z,96064.38
2018-09-12T04:50:06.806Z,96059.13
2018-09-12T04:52:35.399Z,96058.00
2018-09-12T04:55:03.998Z,96054.19
2018-09-12T04:57:32.396Z,96051.24
2018-09-12T05:00:00.926Z,96052.58
2018-09-12T05:02:29.366Z,96050.08
2018-09-12T05:04:57.826Z,96046.84
2018-09-12T05:07:26.268Z,96046.21
2018-09-12T05:09:54.751Z,96048.34
2018-09-12T05:12:23.130Z,96049.86
2018-09-12T05:14:51.589Z,96056.49
2018-09-12T05:17:20.010Z,96050.12
2018-09-12T05:19:50.526Z,96054.32
2018-09-12T05:22:18.970Z,96053.52
2018-09-12T05:24:47.373Z,96050.75
2018-09-12T05:27:15.899Z,96052.97
2018-09-12T05:29:44.336Z,96052.55
2018-09-12T05:32:12.777Z,96057.62
2018-09-12T05:34:41.159Z,96061.33
2018-09-12T05:37:09.572Z,96063.09
2018-09-12T05:39:37.970Z,96059.80
2018-09-12T05:42:07.008Z,96065.70
2018-09-12T05:44:35.404Z,96067.78
2018-09-12T05:47:03.842Z,96069.10
2018-09-12T05:49:32.258Z,96068.14
2018-09-12T05:52:00.687Z,96062.42
2018-09-12T05:54:29.059Z,96057.70
2018-09-12T05:56:57.493Z,96056.12
2018-09-12T05:59:25.936Z,96057.65
2018-09-12T06:01:54.379Z,96057.38
2018-09-12T06:04:22.778Z,96052.30
2018-09-12T06:06:51.264Z,96058.73
2018-09-12T06:09:19.671Z,96060.77
2018-09-12T06:11:48.093Z,96067.85
2018-09-12T06:14:16.512Z,96060.92
2018-09-12T06:16:44.972Z,96066.26
2018-09-12T06:19:13.373Z,96057.62
2018-09-12T06:21:41.771Z,96060.98
2018-09-12T06:24:10.201Z,96058.73
2018-09-12T06:26:38.605Z,96056.95
2018-09-12T06:29:07.025Z,96058.16
2018-09-12T06:31:35.433Z,96060.98
2018-09-12T06:34:03.993Z,96061.97
2018-09-12T06:36:32.389Z,96064.47
2018-09-12T06:39:00.837Z,96067.30
2018-09-12T06:41:29.305Z,96068.01
2018-09-12T06:43:57.729Z,96063.92
2018-09-12T06:46:26.109Z,96064.59
2018-09-12T06:48:54.561Z,96055.89
2018-09-12T06:51:22.949Z,96057.72
2018-09-12T06:53:51.386Z,96052.61
2018-09-12T06:56:19.849Z,96056.90
2018-09-12T06:58:48.286Z,96053.13
2018-09-12T07:01:16.685Z,96055.11
2018-09-12T07:03:45.121Z,96053.43
2018-09-12T07:06:13.525Z,96046.48
2018-09-12T07:08:42.009Z,96051.55
2018-09-12T07:11:10.417Z,96049.35
2018-09-12T07:13:38.825Z,96048.98
2018-09-12T07:16:07.299Z,96051.71
2018-09-12T07:18:35.695Z,96054.46
2018-09-12T07:21:04.189Z,96060.86
2018-09-12T07:23:32.641Z,96061.61
2018-09-12T07:26:01.065Z,96062.53
2018-09-12T07:28:29.464Z,96061.97
2018-09-12T07:30:57.895Z,96067.83
2018-09-12T07:33:26.264Z,96064.44
2018-09-12T07:35:54.709Z,96070.09
2018-09-12T07:38:23.102Z,96065.00
2018-09-12T07:40:51.524Z,96063.73
2018-09-12T07:43:19.913Z,96067.45
2018-09-12T07:45:48.341Z,96069.80
2018-09-12T07:48:16.736Z,96066.03
2018-09-12T07:50:48.677Z,96065.08
2018-09-12T07:53:17.733Z,96066.30
2018-09-12T07:55:46.168Z,96070.20
2018-09-12T07:58:14.619Z,96070.91
2018-09-12T08:00:43.167Z,96069.34
2018-09-12T08:03:11.533Z,96081.80
2018-09-12T08:05:39.917Z,96091.10
2018-09-12T08:08:08.426Z,96097.81
2018-09-12T08:10:36.829Z,96095.23
2018-09-12T08:13:05.285Z,96093.12
2018-09-12T08:15:33.693Z,96094.81
2018-09-12T08:18:02.726Z,96093.20
2018-09-12T08:20:31.098Z,96089.94
2018-09-12T08:22:59.521Z,96088.61
2018-09-12T08:25:27.930Z,96098.23
2018-09-12T08:27:56.374Z,96093.05
2018-09-12T08:30:24.787Z,96096.45
2018-09-12T08:32:53.226Z,96098.41
2018-09-12T08:35:21.638Z,96104.54
2018-09-12T08:37:50.050Z,96100.66
2018-09-12T08:40:18.465Z,96097.71
2018-09-12T08:42:46.890Z,96101.21
2018-09-12T08:45:15.353Z,96102.62
2018-09-12T08:47:43.791Z,96102.17
2018-09-12T08:50:12.181Z,96105.30
2018-09-12T08:52:40.667Z,96100.73
2018-09-12T08:55:09.119Z,96102.42
2018-09-12T08:57:37.562Z,96107.41
2018-09-12T09:00:06.714Z,96102.54
2018-09-12T09:02:35.138Z,96098.47
2018-09-12T09:05:03.539Z,96105.11
2018-09-12T09:07:31.987Z,96097.46
2018-09-12T09:10:00.456Z,96099.16
2018-09-12T09:12:28.840Z,96093.80
2018-09-12T09:14:57.283Z,96096.91
2018-09-12T09:17:25.741Z,96099.18
2018-09-12T09:19:54.197Z,96101.25
2018-09-12T09:22:22.599Z,96094.30
2018-09-12T09:24:51.105Z,96092.16
2018-09-12T09:27:19.514Z,96086.86
2018-09-12T09:29:47.921Z,96091.91
2018-09-12T09:32:16.331Z,96088.51
2018-09-12T09:34:44.826Z,96085.04
2018-09-12T09:37:13.229Z,96084.94
2018-09-12T09:39:41.674Z,96088.48
2018-09-12T09:42:10.068Z,96074.05
2018-09-12T09:44:38.492Z,96081.95
2018-09-12T09:47:06.894Z,96078.55
2018-09-12T09:49:35.321Z,96080.41
2018-09-12T09:52:03.695Z,96077.03
2018-09-12T09:54:32.166Z,96080.52
2018-09-12T09:57:00.552Z,96079.62
2018-09-12T09:59:29.001Z,96076.97
2018-09-12T10:02:02.814Z,96076.76
2018-09-12T10:04:37.114Z,96073.16
2018-09-12T10:07:11.168Z,96062.39
2018-09-12T10:09:39.645Z,96072.77
2018-09-12T10:12:08.027Z,96075.11
2018-09-12T10:14:36.438Z,96078.41
2018-09-12T10:17:04.885Z,96082.09
2018-09-12T10:19:33.314Z,96077.83
2018-09-12T10:22:02.054Z,96089.98
2018-09-12T10:24:30.436Z,96089.83
2018-09-12T10:26:58.879Z,96082.63
2018-09-12T10:29:27.273Z,96080.89
2018-09-12T10:31:55.717Z,96077.83
2018-09-12T10:34:24.134Z,96077.61
2018-09-12T10:36:52.562Z,96076.56
2018-09-12T10:39:21.013Z,96070.21
2018-09-12T10:41:49.499Z,96070.83
2018-09-12T10:44:17.934Z,96069.00
2018-09-12T10:46:46.401Z,96070.11
2018-09-12T10:49:14.807Z,96065.72
2018-09-12T10:51:43.205Z,96064.67
2018-09-12T10:54:11.670Z,96059.05
2018-09-12T10:56:40.092Z,96056.38
2018-09-12T10:59:08.552Z,96054.31
2018-09-12T11:01:36.932Z,96056.77
2018-09-12T11:04:05.436Z,96055.03
2018-09-12T11:06:33.925Z,96043.94
2018-09-12T11:09:02.996Z,96043.87
2018-09-12T11:11:31.405Z,96039.23
2018-09-12T11:13:59.821Z,96033.91
2018-09-12T11:16:28.266Z,96030.94
2018-09-12T11:18:56.716Z,96027.88
2018-09-12T11:21:25.113Z,96025.81
2018-09-12T11:23:53.563Z,96023.66
2018-09-12T11:26:22.006Z,96020.65
2018-09-12T11:28:51.068Z,96020.27
2018-09-12T11:31:19.481Z,96015.33
2018-09-12T11:33:47.939Z,96012.06
2018-09-12T11:36:16.379Z,96008.38
2018-09-12T11:38:45.045Z,96008.55
2018-09-12T11:41:13.448Z,96009.59
2018-09-12T11:43:41.925Z,95999.53
2018-09-12T11:46:10.413Z,95996.48
2018-09-12T11:48:38.823Z,95996.65
2018-09-12T11:51:07.305Z,95996.88
2018-09-12T11:53:35.711Z,96003.20
2018-09-12T11:56:04.340Z,96001.23
2018-09-12T11:58:32.731Z,95998.67
2018-09-12T12:01:01.169Z,95999.23
2018-09-12T12:03:29.649Z,95993.67
2018-09-12T12:05:58.123Z,95997.77
2018-09-12T12:08:26.593Z,95998.91
2018-09-12T12:10:55.060Z,95986.41
2018-09-12T12:13:23.478Z,95985.48
2018-09-12T12:15:51.907Z,95984.75
2018-09-12T12:18:20.281Z,95983.27
2018-09-12T12:20:48.742Z,95974.83
2018-09-12T12:23:17.220Z,95972.86
2018-09-12T12:25:45.589Z,95965.38
2018-09-12T12:28:14.005Z,95961.59
2018-09-12T12:30:42.473Z,95964.03
2018-09-12T12:33:10.854Z,95964.95
2018-09-12T12:35:39.450Z,95952.77
2018-09-12T12:38:07.857Z,95954.51
2018-09-12T12:40:36.233Z,95949.87
2018-09-12T12:43:05.013Z,95940.55
2018-09-12T12:45:33.478Z,95932.77
2018-09-12T12:48:01.923Z,95930.48
2018-09-12T12:50:30.313Z,95919.70
2018-09-12T12:52:59.793Z,95923.91
2018-09-12T12:55:28.190Z,95924.59
2018-09-12T12:57:56.649Z,95908.63
2018-09-12T13:00:25.069Z,95906.36
2018-09-12T13:02:53.819Z,95905.44
2018-09-12T13:05:22.263Z,95903.10
2018-09-12T13:07:50.792Z,95900.80
2018-09-12T13:10:19.213Z,95891.88
2018-09-12T13:12:47.892Z,95890.41
2018-09-12T13:15:16.301Z,95887.91
2018-09-12T13:17:44.863Z,95886.70
2018-09-12T13:20:13.246Z,95878.37
2018-09-12T13:22:41.661Z,95882.86
2018-09-12T13:25:10.054Z,95883.13
2018-09-12T13:27:38.625Z,95885.66
2018-09-12T13:30:07.005Z,95877.55
2018-09-12T13:32:35.441Z,95875.86
2018-09-12T13:35:03.921Z,95873.02
2018-09-12T13:37:32.877Z,95864.11
2018-09-12T13:40:01.293Z,95867.13
2018-09-12T13:42:29.680Z,95865.88
2018-09-12T13:44:58.141Z,95866.52
2018-09-12T13:47:26.525Z,95863.72
2018-09-12T13:49:54.967Z,95855.23
2018-09-12T13:52:23.353Z,95860.14
2018-09-12T13:54:51.791Z,95846.13
2018-09-12T13:57:20.201Z,95856.84
2018-09-12T13:59:48.648Z,95851.19
2018-09-12T14:02:17.041Z,95844.98
2018-09-12T14:04:45.482Z,95842.19
2018-09-12T14:07:13.913Z,95839.45
2018-09-12T14:09:42.351Z,95832.64
2018-09-12T14:12:11.441Z,95837.57
2018-09-12T14:14:39.884Z,95834.76
2018-09-12T14:17:08.461Z,95832.55
2018-09-12T14:19:36.872Z,95829.25
2018-09-12T14:22:05.265Z,95831.94
2018-09-12T14:24:33.842Z,95831.43
2018-09-12T14:27:02.244Z,95832.90
2018-09-12T14:29:30.668Z,95821.02
2018-09-12T14:31:59.073Z,95819.73
2018-09-12T14:34:27.437Z,95812.45
2018-09-12T14:36:55.833Z,95807.84
2018-09-12T14:39:24.241Z,95801.49
2018-09-12T14:41:52.669Z,95810.55
2018-09-12T14:44:21.063Z,95804.27
2018-09-12T14:46:49.505Z,95800.71
2018-09-12T14:49:17.881Z,95807.24
2018-09-12T14:51:46.280Z,95803.69
2018-09-12T14:54:14.731Z,95798.74
2018-09-12T14:56:43.166Z,95792.55
2018-09-12T14:59:11.653Z,95800.80
2018-09-12T15:01:40.115Z,95793.40
2018-09-12T15:04:08.481Z,95782.02
2018-09-12T15:06:36.881Z,95789.03
2018-09-12T15:09:08.973Z,95787.26
2018-09-12T15:11:37.388Z,95790.01
2018-09-12T15:14:12.386Z,95790.66
2018-09-12T15:16:40.821Z,95786.48
2018-09-12T15:19:09.220Z,95791.17
2018-09-12T15:21:37.645Z,95781.55
2018-09-12T15:24:06.037Z,95784.50
2018-09-12T15:26:34.413Z,95779.85
2018-09-12T15:29:03.568Z,95785.13
2018-09-12T15:31:31.947Z,95773.03
2018-09-12T15:34:00.368Z,95771.73
2018-09-12T15:36:28.762Z,95775.48
2018-09-12T15:38:57.177Z,95777.71
2018-09-12T15:41:25.608Z,95774.97
2018-09-12T15:43:54.023Z,95769.27
2018-09-12T15:46:22.405Z,95773.53
2018-09-12T15:48:50.801Z,95772.97
2018-09-12T15:51:19.178Z,95770.11
2018-09-12T15:53:47.861Z,95771.59
2018-09-12T15:56:16.258Z,95775.83
2018-09-12T15:58:44.673Z,95770.06
2018-09-12T16:01:13.042Z,95769.20
2018-09-12T16:03:41.506Z,95762.63
2018-09-12T16:06:09.903Z,95757.42
2018-09-12T16:08:38.401Z,95750.14
2018-09-12T16:11:06.797Z,95750.70
2018-09-12T16:13:35.217Z,95750.52
2018-09-12T16:16:03.646Z,95748.68
2018-09-12T16:18:32.068Z,95746.67
2018-09-12T16:21:00.469Z,95735.34
2018-09-12T16:23:28.881Z,95736.80
2018-09-12T16:25:57.453Z,95734.61
2018-09-12T16:28:25.824Z,95730.84
2018-09-12T16:30:54.252Z,95727.30
2018-09-12T16:33:22.641Z,95722.89
2018-09-12T16:35:51.113Z,95727.66
2018-09-12T16:38:19.586Z,95727.57
2018-09-12T16:40:48.048Z,95726.89
2018-09-12T16:43:16.444Z,95716.48
2018-09-12T16:45:44.913Z,95722.48
2018-09-12T16:48:13.304Z,95723.67
2018-09-12T16:50:42.356Z,95715.38
2018-09-12T16:53:10.698Z,95719.44
2018-09-12T16:55:39.124Z,95725.84
2018-09-12T16:58:07.547Z,95716.27
2018-09-12T17:00:35.985Z,95711.61
2018-09-12T17:03:04.413Z,95718.35
2018-09-12T17:05:32.837Z,95717.97
2018-09-12T17:08:02.045Z,95721.00
2018-09-12T17:10:30.469Z,95716.60
2018-09-12T17:12:58.862Z,95719.56
2018-09-12T17:15:27.251Z,95718.41
2018-09-12T17:17:55.664Z,95710.17
2018-09-12T17:20:24.321Z,95717.17
2018-09-12T17:22:52.733Z,95715.30
2018-09-12T17:25:21.096Z,95717.83
2018-09-12T17:27:49.505Z,95710.87
2018-09-12T17:30:17.901Z,95712.34
2018-09-12T17:32:46.309Z,95709.66
2018-09-12T17:35:15.521Z,95713.13
2018-09-12T17:37:43.992Z,95709.11
2018-09-12T17:40:12.417Z,95717.99
2018-09-12T17:42:40.829Z,95717.51
2018-09-12T17:45:09.341Z,95717.25
2018-09-12T17:47:38.098Z,95713.02
2018-09-12T17:50:06.710Z,95711.64
2018-09-12T17:52:35.143Z,95710.05
2018-09-12T17:55:03.588Z,95705.59
2018-09-12T17:57:32.093Z,95704.81
2018-09-12T18:00:00.593Z,95699.88
2018-09-12T18:02:29.097Z,95707.88
2018-09-12T18:04:57.488Z,95712.61
2018-09-12T18:07:25.961Z,95718.48
2018-09-12T18:09:54.411Z,95720.68
2018-09-12T18:14:57.406Z,95728.39
2018-09-12T18:17:25.844Z,95733.55
2018-09-12T18:19:54.241Z,95738.55
2018-09-12T18:22:22.616Z,95739.77
2018-09-12T18:24:51.159Z,95748.27
2018-09-12T18:27:19.506Z,95750.92
2018-09-12T18:29:47.977Z,95749.52
2018-09-12T18:32:16.374Z,95748.92
2018-09-12T18:34:44.885Z,95749.16
2018-09-12T18:37:13.325Z,95754.27
2018-09-12T18:39:41.721Z,95764.10
2018-09-12T18:42:10.111Z,95764.72
2018-09-12T18:44:38.537Z,95763.50
2018-09-12T18:47:06.941Z,95763.50
2018-09-12T18:49:35.341Z,95759.01
2018-09-12T18:52:03.738Z,95762.39
2018-09-12T18:54:32.132Z,95761.34
2018-09-12T18:57:00.540Z,95753.47
2018-09-12T18:59:28.998Z,95757.28
2018-09-12T19:01:57.421Z,95751.03
2018-09-12T19:04:25.845Z,95753.30
2018-09-12T19:06:54.357Z,95755.02
2018-09-12T19:09:22.702Z,95759.99
2018-09-12T19:11:51.121Z,95761.53
2018-09-12T19:14:19.497Z,95759.89
2018-09-12T19:16:47.929Z,95763.48
2018-09-12T19:19:16.309Z,95757.84
2018-09-12T19:21:44.745Z,95760.92
2018-09-12T19:24:13.184Z,95760.70
2018-09-12T19:26:41.613Z,95766.52
2018-09-12T19:29:09.985Z,95764.59
2018-09-12T19:31:38.409Z,95774.50
2018-09-12T19:34:06.815Z,95773.98
2018-09-12T19:36:35.346Z,95775.08
2018-09-12T19:39:04.075Z,95763.94
2018-09-12T19:41:32.486Z,95776.49
2018-09-12T19:44:00.861Z,95775.55
2018-09-12T19:46:29.273Z,95781.92
2018-09-12T19:48:57.662Z,95781.72
2018-09-12T19:51:26.269Z,95779.66
2018-09-12T19:53:54.747Z,95775.55
2018-09-12T19:56:23.313Z,95776.88
2018-09-12T19:58:51.728Z,95773.29
2018-09-12T20:01:20.190Z,95774.81
2018-09-12T20:03:48.616Z,95774.73
2018-09-12T20:06:16.997Z,95771.79
2018-09-12T20:08:45.569Z,95768.67
2018-09-12T20:11:13.957Z,95771.74
2018-09-12T20:13:42.444Z,95766.81
2018-09-12T20:16:10.952Z,95764.25
2018-09-12T20:18:39.397Z,95768.83
2018-09-12T20:21:07.813Z,95768.56
2018-09-12T20:23:36.379Z,95760.00
2018-09-12T20:26:05.052Z,95747.96
2018-09-12T20:28:41.872Z,95755.31
2018-09-12T20:31:10.667Z,95752.73
2018-09-12T20:33:39.872Z,95756.10
2018-09-12T20:36:08.373Z,95759.17
2018-09-12T20:38:36.891Z,95760.68
2018-09-12T20:41:05.865Z,95764.66
2018-09-12T20:43:34.551Z,95756.61
2018-09-12T20:46:03.727Z,95754.96
2018-09-12T20:48:32.209Z,95752.88
2018-09-12T20:51:01.976Z,95747.97
2018-09-12T20:53:30.435Z,95760.50
2018-09-12T20:55:58.829Z,95761.53
2018-09-12T20:58:27.260Z,95754.98
2018-09-12T21:00:55.754Z,95755.33
2018-09-12T21:03:24.138Z,95756.91
2018-09-12T21:05:52.741Z,95754.47
2018-09-12T21:11:23.722Z,95747.54
2018-09-12T21:13:52.130Z,95751.94
2018-09-12T21:16:20.566Z,95750.36
2018-09-12T21:18:49.032Z,95747.67
2018-09-12T21:21:17.495Z,95740.42
2018-09-12T21:23:46.100Z,95745.81
2018-09-12T21:26:14.580Z,95741.08
2018-09-12T21:28:43.082Z,95738.27
2018-09-12T21:31:11.565Z,95745.05
2018-09-12T21:33:43.017Z,95734.59
2018-09-12T21:38:38.951Z,95733.87
2018-09-12T21:41:07.650Z,95736.12
2018-09-12T21:43:36.111Z,95734.67
2018-09-12T21:46:04.606Z,95734.61
2018-09-12T21:48:33.649Z,95727.72
2018-09-12T21:51:02.471Z,95730.54
2018-09-12T21:53:31.086Z,95724.75
2018-09-12T21:55:59.713Z,95729.28
2018-09-12T21:58:28.199Z,95725.67
2018-09-12T22:00:56.689Z,95720.94
2018-09-12T22:03:25.104Z,95714.66
2018-09-12T22:05:53.632Z,95712.83
2018-09-12T22:08:22.237Z,95710.28
2018-09-12T22:10:50.746Z,95711.02
2018-09-12T22:13:19.465Z,95713.83
2018-09-12T22:15:47.937Z,95709.08
2018-09-12T22:18:17.514Z,95711.47
2018-09-12T22:20:45.955Z,95707.34
2018-09-12T22:23:14.487Z,95714.45
2018-09-12T22:25:42.934Z,95702.53
2018-09-12T22:28:11.447Z,95710.14
2018-09-12T22:30:40.126Z,95708.91
2018-09-12T22:33:08.658Z,95714.02
2018-09-12T22:35:37.065Z,95707.81
2018-09-12T22:38:05.847Z,95709.87
2018-09-12T22:40:34.311Z,95712.27
2018-09-12T22:43:03.558Z,95710.54
2018-09-12T22:45:32.138Z,95717.65
2018-09-12T22:48:00.948Z,95715.91
2018-09-12T22:50:29.405Z,95712.24
2018-09-12T22:52:57.838Z,95709.66
2018-09-12T22:55:32.536Z,95699.02
2018-09-12T22:58:01.035Z,95701.28
2018-09-12T23:00:29.577Z,95699.73
2018-09-12T23:02:58.001Z,95694.67
2018-09-12T23:05:26.458Z,95690.32
2018-09-12T23:07:54.882Z,95691.33
2018-09-12T23:10:23.342Z,95682.53
2018-09-12T23:12:51.755Z,95679.13
2018-09-12T23:15:20.214Z,95670.30
2018-09-12T23:17:48.642Z,95668.27
2018-09-12T23:20:17.124Z,95666.41
2018-09-12T23:22:45.537Z,95664.25
2018-09-12T23:25:14.007Z,95665.49
2018-09-12T23:27:42.406Z,95656.64
2018-09-12T23:30:10.858Z,95664.58
2018-09-12T23:32:39.277Z,95662.86
2018-09-12T23:35:07.762Z,95663.55
2018-09-12T23:37:36.175Z,95662.48
2018-09-12T23:40:04.646Z,95666.95
2018-09-12T23:42:33.114Z,95667.78
2018-09-12T23:45:01.991Z,95662.63
2018-09-12T23:47:30.393Z,95658.81
2018-09-12T23:49:58.849Z,95668.31
2018-09-12T23:52:27.281Z,95664.87
2018-09-12T23:54:55.717Z,95650.41
2018-09-12T23:57:24.094Z,95651.52
2018-09-12T23:59:52.481Z,95645.74
